createdAt,value
2018-12-13T00:00:21.386Z,4
2018-12-13T00:01:21.363Z,4
2018-12-13T00:02:21.400Z,4
2018-12-13T00:03:21.382Z,4
2018-12-13T00:04:21.378Z,3
2018-12-13T00:05:21.365Z,3
2018-12-13T00:06:21.352Z,3
2018-12-13T00:07:21.419Z,3
2018-12-13T00:08:21.359Z,3
2018-12-13T00:09:21.389Z,3
2018-12-13T00:10:21.386Z,3
2018-12-13T00:11:21.364Z,3
2018-12-13T00:12:21.416Z,3
2018-12-13T00:13:21.358Z,3
2018-12-13T00:14:21.374Z,4
2018-12-13T00:15:21.362Z,4
2018-12-13T00:16:21.362Z,4
2018-12-13T00:17:21.410Z,4
2018-12-13T00:18:21.368Z,4
2018-12-13T00:19:21.374Z,4
2018-12-13T00:20:21.380Z,4
2018-12-13T00:21:21.469Z,4
2018-12-13T00:22:21.414Z,4
2018-12-13T00:23:21.361Z,4
2018-12-13T00:24:21.358Z,4
2018-12-13T00:25:21.354Z,4
2018-12-13T00:26:21.399Z,4
2018-12-13T00:27:21.412Z,4
2018-12-13T00:28:21.371Z,4
2018-12-13T00:29:21.350Z,4
2018-12-13T00:30:21.517Z,4
2018-12-13T00:31:21.353Z,4
2018-12-13T00:32:21.427Z,4
2018-12-13T00:33:21.356Z,3
2018-12-13T00:34:21.398Z,3
2018-12-13T00:35:21.440Z,3
2018-12-13T00:36:21.407Z,3
2018-12-13T00:37:21.355Z,3
2018-12-13T00:38:21.342Z,3
2018-12-13T00:39:21.378Z,3
2018-12-13T00:40:21.341Z,3
2018-12-13T00:41:21.435Z,3
2018-12-13T00:42:21.341Z,3
2018-12-13T00:43:21.824Z,3
2018-12-13T00:44:21.565Z,3
2018-12-13T00:45:21.367Z,3
2018-12-13T00:46:21.427Z,3
2018-12-13T00:47:21.371Z,3
2018-12-13T00:48:21.370Z,3
2018-12-13T00:49:21.372Z,3
2018-12-13T00:50:21.375Z,3
2018-12-13T00:51:21.480Z,3
2018-12-13T00:52:21.376Z,3
2018-12-13T00:53:21.374Z,3
2018-12-13T00:54:21.374Z,3
2018-12-13T00:55:21.371Z,3
2018-12-13T00:56:21.428Z,3
2018-12-13T00:57:21.379Z,3
2018-12-13T00:58:21.374Z,3
2018-12-13T00:59:21.373Z,3
2018-12-13T01:00:21.394Z,3
2018-12-13T01:01:21.448Z,3
2018-12-13T01:02:21.423Z,3
2018-12-13T01:03:21.355Z,3
2018-12-13T01:04:21.394Z,3
2018-12-13T01:05:21.359Z,3
2018-12-13T01:06:21.363Z,3
2018-12-13T01:07:21.421Z,3
2018-12-13T01:08:21.389Z,3
2018-12-13T01:09:21.353Z,3
2018-12-13T01:10:21.361Z,3
2018-12-13T01:11:21.365Z,3
2018-12-13T01:12:21.438Z,3
2018-12-13T01:13:21.353Z,3
2018-12-13T01:14:21.383Z,3
2018-12-13T01:15:21.405Z,3
2018-12-13T01:16:21.364Z,3
2018-12-13T01:17:21.406Z,3
2018-12-13T01:18:21.416Z,3
2018-12-13T01:19:21.367Z,3
2018-12-13T01:20:21.359Z,3
2018-12-13T01:21:21.359Z,3
2018-12-13T01:22:21.387Z,3
2018-12-13T01:23:21.409Z,3
2018-12-13T01:24:21.413Z,3
2018-12-13T01:25:21.440Z,3
2018-12-13T01:26:21.877Z,3
2018-12-13T01:27:21.636Z,3
2018-12-13T01:28:21.500Z,3
2018-12-13T01:29:21.559Z,3
2018-12-13T01:30:22.132Z,3
2018-12-13T01:31:21.362Z,3
2018-12-13T01:32:21.321Z,3
2018-12-13T01:33:21.387Z,3
2018-12-13T01:34:21.357Z,3
2018-12-13T01:35:21.381Z,3
2018-12-13T01:36:21.373Z,3
2018-12-13T01:37:21.355Z,3
2018-12-13T01:38:21.618Z,3
2018-12-13T01:39:21.374Z,4
2018-12-13T01:40:21.548Z,4
2018-12-13T01:41:21.407Z,4
2018-12-13T01:42:21.426Z,4
2018-12-13T01:43:21.331Z,4
2018-12-13T01:44:21.402Z,4
2018-12-13T01:45:21.492Z,4
2018-12-13T01:46:21.455Z,4
2018-12-13T01:47:21.364Z,4
2018-12-13T01:48:21.411Z,4
2018-12-13T01:52:21.437Z,3
2018-12-13T01:53:21.408Z,3
2018-12-13T01:54:21.360Z,3
2018-12-13T01:55:21.377Z,3
2018-12-13T01:56:21.386Z,3
2018-12-13T01:57:21.472Z,3
2018-12-13T01:58:21.374Z,3
2018-12-13T01:59:21.398Z,3
2018-12-13T02:00:21.372Z,3
2018-12-13T02:01:21.356Z,3
2018-12-13T02:02:21.355Z,3
2018-12-13T02:03:21.397Z,3
2018-12-13T02:04:21.357Z,3
2018-12-13T02:05:21.365Z,3
2018-12-13T02:06:21.365Z,3
2018-12-13T02:07:21.354Z,3
2018-12-13T02:08:21.538Z,3
2018-12-13T02:09:21.395Z,3
2018-12-13T02:10:21.368Z,3
2018-12-13T02:11:21.363Z,3
2018-12-13T02:12:21.356Z,3
2018-12-13T02:13:21.377Z,3
2018-12-13T02:14:21.414Z,3
2018-12-13T02:15:21.407Z,3
2018-12-13T02:16:21.410Z,3
2018-12-13T02:17:21.408Z,3
2018-12-13T02:18:21.377Z,3
2018-12-13T02:19:21.415Z,3
2018-12-13T02:20:21.479Z,3
2018-12-13T02:21:21.380Z,3
2018-12-13T02:22:21.508Z,3
2018-12-13T02:23:21.376Z,3
2018-12-13T02:24:21.540Z,3
2018-12-13T02:25:21.603Z,3
2018-12-13T02:26:21.394Z,3
2018-12-13T02:27:21.550Z,3
2018-12-13T02:28:21.456Z,3
2018-12-13T02:29:21.452Z,3
2018-12-13T02:30:21.433Z,3
2018-12-13T02:31:21.374Z,3
2018-12-13T02:32:21.448Z,3
2018-12-13T02:33:21.541Z,3
2018-12-13T02:34:21.578Z,3
2018-12-13T02:35:21.400Z,3
2018-12-13T02:36:21.432Z,3
2018-12-13T02:37:21.423Z,3
2018-12-13T02:38:21.447Z,3
2018-12-13T02:39:21.456Z,3
2018-12-13T02:40:21.404Z,3
2018-12-13T02:41:21.400Z,3
2018-12-13T02:42:21.358Z,3
2018-12-13T02:43:21.432Z,3
2018-12-13T02:44:21.427Z,3
2018-12-13T02:45:21.374Z,3
2018-12-13T02:46:21.617Z,3
2018-12-13T02:47:21.395Z,3
2018-12-13T02:48:21.382Z,3
2018-12-13T02:49:21.378Z,3
2018-12-13T02:50:21.490Z,3
2018-12-13T02:51:21.451Z,3
2018-12-13T02:52:21.444Z,3
2018-12-13T02:53:21.468Z,3
2018-12-13T02:54:21.440Z,3
2018-12-13T02:55:21.417Z,3
2018-12-13T02:56:21.369Z,3
2018-12-13T02:57:21.392Z,3
2018-12-13T02:58:21.483Z,3
2018-12-13T02:59:21.380Z,3
2018-12-13T03:00:21.375Z,3
2018-12-13T03:01:21.371Z,3
2018-12-13T03:02:21.407Z,3
2018-12-13T03:03:21.423Z,3
2018-12-13T03:04:21.510Z,3
2018-12-13T03:05:21.385Z,3
2018-12-13T03:06:21.382Z,3
2018-12-13T03:07:21.444Z,3
2018-12-13T03:08:21.378Z,3
2018-12-13T03:09:21.462Z,3
2018-12-13T03:10:21.370Z,3
2018-12-13T03:11:21.412Z,3
2018-12-13T03:12:21.409Z,3
2018-12-13T03:13:21.377Z,3
2018-12-13T03:14:21.416Z,3
2018-12-13T03:15:21.497Z,3
2018-12-13T03:16:21.371Z,3
2018-12-13T03:17:21.363Z,3
2018-12-13T03:18:21.387Z,3
2018-12-13T03:19:21.450Z,3
2018-12-13T03:20:21.447Z,3
2018-12-13T03:21:21.559Z,4
2018-12-13T03:22:21.401Z,4
2018-12-13T03:23:21.371Z,4
2018-12-13T03:24:21.377Z,4
2018-12-13T03:25:21.399Z,4
2018-12-13T03:26:21.498Z,4
2018-12-13T03:27:21.497Z,4
2018-12-13T03:28:21.391Z,4
2018-12-13T03:29:21.379Z,4
2018-12-13T03:30:21.386Z,4
2018-12-13T03:31:21.385Z,4
2018-12-13T03:32:21.417Z,4
2018-12-13T03:33:21.508Z,4
2018-12-13T03:34:21.398Z,4
2018-12-13T03:35:21.375Z,4
2018-12-13T03:36:21.374Z,4
2018-12-13T03:37:21.428Z,4
2018-12-13T03:38:21.425Z,4
2018-12-13T03:39:21.377Z,4
2018-12-13T03:40:21.383Z,4
2018-12-13T03:41:21.493Z,4
2018-12-13T03:42:21.376Z,4
2018-12-13T03:43:21.502Z,4
2018-12-13T03:44:21.420Z,4
2018-12-13T03:45:21.399Z,4
2018-12-13T03:46:21.371Z,4
2018-12-13T03:47:21.360Z,4
2018-12-13T03:48:21.416Z,4
2018-12-13T03:49:21.426Z,4
2018-12-13T03:50:21.390Z,4
2018-12-13T03:51:21.447Z,4
2018-12-13T03:52:21.382Z,4
2018-12-13T03:53:21.488Z,4
2018-12-13T03:54:21.397Z,4
2018-12-13T03:55:21.387Z,4
2018-12-13T03:56:21.371Z,4
2018-12-13T03:57:21.386Z,4
2018-12-13T03:58:21.452Z,4
2018-12-13T03:59:21.397Z,4
2018-12-13T04:00:21.394Z,4
2018-12-13T04:01:21.399Z,4
2018-12-13T04:02:21.390Z,4
2018-12-13T04:03:21.493Z,4
2018-12-13T04:04:21.375Z,4
2018-12-13T04:05:21.407Z,4
2018-12-13T04:06:21.398Z,4
2018-12-13T04:07:27.598Z,4
2018-12-13T04:08:21.429Z,4
2018-12-13T04:09:21.397Z,4
2018-12-13T04:10:21.380Z,4
2018-12-13T04:11:21.368Z,4
2018-12-13T04:12:21.369Z,4
2018-12-13T04:13:21.419Z,4
2018-12-13T04:14:21.421Z,4
2018-12-13T04:15:21.389Z,4
2018-12-13T04:16:21.375Z,4
2018-12-13T04:17:21.373Z,4
2018-12-13T04:18:21.414Z,4
2018-12-13T04:19:21.424Z,4
2018-12-13T04:20:21.371Z,4
2018-12-13T04:21:21.442Z,4
2018-12-13T04:22:21.377Z,4
2018-12-13T04:23:21.377Z,4
2018-12-13T04:24:21.379Z,4
2018-12-13T04:25:21.425Z,4
2018-12-13T04:26:21.623Z,4
2018-12-13T04:29:21.413Z,4
2018-12-13T04:31:21.421Z,5
2018-12-13T04:33:21.395Z,5
2018-12-13T04:34:21.488Z,5
2018-12-13T04:35:21.458Z,5
2018-12-13T04:36:21.459Z,4
2018-12-13T04:37:21.530Z,4
2018-12-13T04:38:21.435Z,4
2018-12-13T04:39:21.434Z,4
2018-12-13T04:40:21.487Z,4
2018-12-13T04:41:21.378Z,4
2018-12-13T04:42:21.391Z,4
2018-12-13T04:43:21.503Z,4
2018-12-13T04:44:21.474Z,4
2018-12-13T04:45:21.436Z,4
2018-12-13T04:46:21.483Z,4
2018-12-13T04:47:21.375Z,4
2018-12-13T04:48:21.397Z,4
2018-12-13T04:49:21.398Z,4
2018-12-13T04:50:21.441Z,4
2018-12-13T04:51:21.384Z,4
2018-12-13T04:52:21.446Z,4
2018-12-13T04:53:21.383Z,4
2018-12-13T04:54:21.408Z,4
2018-12-13T04:55:21.376Z,4
2018-12-13T04:56:21.395Z,4
2018-12-13T04:57:21.432Z,4
2018-12-13T04:58:21.425Z,4
2018-12-13T04:59:21.380Z,4
2018-12-13T05:00:21.371Z,4
2018-12-13T05:01:21.372Z,4
2018-12-13T05:02:21.376Z,4
2018-12-13T05:03:21.460Z,4
2018-12-13T05:04:21.394Z,4
2018-12-13T05:05:21.407Z,4
2018-12-13T05:06:21.412Z,4
2018-12-13T05:07:21.406Z,4
2018-12-13T05:08:21.450Z,4
2018-12-13T05:09:21.381Z,4
2018-12-13T05:10:21.374Z,4
2018-12-13T05:11:21.378Z,4
2018-12-13T05:12:21.370Z,4
2018-12-13T05:13:21.499Z,4
2018-12-13T05:14:21.455Z,4
2018-12-13T05:15:21.378Z,4
2018-12-13T05:16:21.377Z,4
2018-12-13T05:17:21.451Z,4
2018-12-13T05:18:21.421Z,4
2018-12-13T05:19:21.433Z,4
2018-12-13T05:20:21.472Z,4
2018-12-13T05:21:21.395Z,4
2018-12-13T05:22:21.385Z,4
2018-12-13T05:23:21.449Z,4
2018-12-13T05:24:21.428Z,4
2018-12-13T05:25:21.404Z,4
2018-12-13T05:26:21.554Z,4
2018-12-13T05:27:21.376Z,4
2018-12-13T05:28:21.368Z,4
2018-12-13T05:29:21.413Z,4
2018-12-13T05:30:21.442Z,4
2018-12-13T05:31:21.473Z,4
2018-12-13T05:32:21.350Z,4
2018-12-13T05:33:21.344Z,4
2018-12-13T05:34:21.354Z,4
2018-12-13T05:35:21.381Z,4
2018-12-13T05:36:21.368Z,4
2018-12-13T05:37:21.377Z,4
2018-12-13T05:38:21.345Z,4
2018-12-13T05:39:21.406Z,4
2018-12-13T05:40:21.350Z,4
2018-12-13T05:41:21.407Z,4
2018-12-13T05:42:21.354Z,4
2018-12-13T05:43:21.362Z,4
2018-12-13T05:44:21.346Z,4
2018-12-13T05:45:21.370Z,4
2018-12-13T05:46:21.507Z,4
2018-12-13T05:47:21.375Z,5
2018-12-13T05:48:21.375Z,5
2018-12-13T05:49:21.371Z,4
2018-12-13T05:50:21.445Z,5
2018-12-13T05:51:21.416Z,4
2018-12-13T05:52:21.373Z,4
2018-12-13T05:53:21.372Z,4
2018-12-13T05:54:21.375Z,4
2018-12-13T05:55:21.452Z,4
2018-12-13T05:56:21.375Z,4
2018-12-13T05:57:21.383Z,4
2018-12-13T05:58:21.370Z,4
2018-12-13T05:59:21.371Z,4
2018-12-13T06:00:21.507Z,4
2018-12-13T06:01:21.435Z,4
2018-12-13T06:02:21.373Z,4
2018-12-13T06:03:21.401Z,4
2018-12-13T06:04:21.391Z,3
2018-12-13T06:05:21.428Z,3
2018-12-13T06:06:21.372Z,3
2018-12-13T06:07:21.436Z,3
2018-12-13T06:08:21.419Z,3
2018-12-13T06:09:21.367Z,3
2018-12-13T06:10:21.416Z,3
2018-12-13T06:11:21.442Z,3
2018-12-13T06:12:21.364Z,3
2018-12-13T06:13:21.350Z,3
2018-12-13T06:14:21.359Z,3
2018-12-13T06:15:21.421Z,3
2018-12-13T06:16:21.364Z,3
2018-12-13T06:17:21.401Z,3
2018-12-13T06:18:21.428Z,3
2018-12-13T06:19:26.762Z,3
2018-12-13T06:20:21.402Z,3
2018-12-13T06:21:21.449Z,3
2018-12-13T06:22:21.364Z,3
2018-12-13T06:23:21.358Z,3
2018-12-13T06:24:21.412Z,3
2018-12-13T06:25:21.361Z,3
2018-12-13T06:26:21.360Z,3
2018-12-13T06:27:21.361Z,3
2018-12-13T06:28:21.371Z,4
2018-12-13T06:29:21.401Z,3
2018-12-13T06:30:21.352Z,4
2018-12-13T06:31:21.366Z,4
2018-12-13T06:32:21.378Z,3
2018-12-13T06:33:24.797Z,4
2018-12-13T06:34:21.610Z,4
2018-12-13T06:35:21.369Z,3
2018-12-13T06:36:21.409Z,3
2018-12-13T06:37:21.405Z,3
2018-12-13T06:38:21.364Z,3
2018-12-13T06:39:21.413Z,3
2018-12-13T06:40:21.461Z,3
2018-12-13T06:41:21.405Z,3
2018-12-13T06:42:21.388Z,3
2018-12-13T06:43:21.374Z,3
2018-12-13T06:44:21.459Z,3
2018-12-13T06:45:21.456Z,3
2018-12-13T06:46:21.403Z,3
2018-12-13T06:47:21.491Z,4
2018-12-13T06:48:21.368Z,3
2018-12-13T06:49:21.535Z,3
2018-12-13T06:50:21.412Z,3
2018-12-13T06:51:21.442Z,3
2018-12-13T06:52:21.489Z,4
2018-12-13T06:53:21.468Z,7
2018-12-13T06:54:23.708Z,6
2018-12-13T06:55:21.431Z,6
2018-12-13T06:56:21.361Z,5
2018-12-13T06:57:21.606Z,7
2018-12-13T06:58:21.398Z,4
2018-12-13T06:59:21.386Z,5
2018-12-13T07:00:21.434Z,4
2018-12-13T07:01:21.385Z,4
2018-12-13T07:02:22.631Z,4
2018-12-13T07:03:21.384Z,4
2018-12-13T07:04:21.400Z,4
2018-12-13T07:05:21.469Z,5
2018-12-13T07:06:23.752Z,6
2018-12-13T07:07:21.423Z,6
2018-12-13T07:08:21.386Z,8
2018-12-13T07:09:21.384Z,6
2018-12-13T07:10:21.783Z,6
2018-12-13T07:11:21.387Z,6
2018-12-13T07:12:21.459Z,6
2018-12-13T07:13:21.382Z,5
2018-12-13T07:14:21.855Z,5
2018-12-13T07:15:21.480Z,5
2018-12-13T07:16:21.369Z,4
2018-12-13T07:17:21.404Z,5
2018-12-13T07:18:21.355Z,5
2018-12-13T07:19:21.925Z,6
2018-12-13T07:20:23.761Z,7
2018-12-13T07:21:22.087Z,6
2018-12-13T07:22:21.370Z,5
2018-12-13T07:23:21.351Z,6
2018-12-13T07:24:21.509Z,7
2018-12-13T07:25:21.396Z,8
2018-12-13T07:26:21.396Z,5
2018-12-13T07:27:21.352Z,6
2018-12-13T07:28:21.389Z,5
2018-12-13T07:29:21.844Z,6
2018-12-13T07:30:21.682Z,5
2018-12-13T07:31:21.877Z,6
2018-12-13T07:32:21.275Z,5
2018-12-13T07:33:21.272Z,5
2018-12-13T07:34:21.372Z,6
2018-12-13T07:35:21.362Z,6
2018-12-13T07:36:21.447Z,6
2018-12-13T07:37:21.334Z,6
2018-12-13T07:38:21.278Z,6
2018-12-13T07:39:21.270Z,6
2018-12-13T07:40:21.291Z,6
2018-12-13T07:41:21.370Z,6
2018-12-13T07:42:21.340Z,7
2018-12-13T07:43:21.300Z,7
2018-12-13T07:44:21.298Z,7
2018-12-13T07:45:21.277Z,7
2018-12-13T07:46:21.518Z,6
2018-12-13T07:47:21.635Z,6
2018-12-13T07:48:21.605Z,7
2018-12-13T07:49:21.371Z,6
2018-12-13T07:50:21.424Z,6
2018-12-13T07:51:21.446Z,6
2018-12-13T07:52:21.365Z,6
2018-12-13T07:53:21.466Z,6
2018-12-13T07:54:21.455Z,6
2018-12-13T07:55:21.386Z,6
2018-12-13T07:56:21.414Z,6
2018-12-13T07:57:21.392Z,6
2018-12-13T07:58:21.469Z,6
2018-12-13T07:59:21.399Z,5
2018-12-13T08:00:21.385Z,5
2018-12-13T08:01:21.482Z,5
2018-12-13T08:02:21.430Z,5
2018-12-13T08:03:21.391Z,5
2018-12-13T08:04:21.396Z,5
2018-12-13T08:05:21.421Z,5
2018-12-13T08:06:21.447Z,5
2018-12-13T08:07:21.366Z,5
2018-12-13T08:08:21.429Z,5
2018-12-13T08:09:21.372Z,5
2018-12-13T08:10:21.404Z,6
2018-12-13T08:11:21.676Z,5
2018-12-13T08:12:21.375Z,5
2018-12-13T08:13:21.376Z,5
2018-12-13T08:14:21.376Z,5
2018-12-13T08:15:21.538Z,5
2018-12-13T08:16:21.635Z,5
2018-12-13T08:17:21.382Z,5
2018-12-13T08:18:21.490Z,5
2018-12-13T08:19:21.374Z,5
2018-12-13T08:20:21.372Z,5
2018-12-13T08:21:21.439Z,5
2018-12-13T08:22:21.361Z,5
2018-12-13T08:23:21.464Z,5
2018-12-13T08:24:21.366Z,5
2018-12-13T08:25:21.358Z,5
2018-12-13T08:26:21.405Z,4
2018-12-13T08:27:21.367Z,5
2018-12-13T08:28:21.438Z,4
2018-12-13T08:29:21.422Z,4
2018-12-13T08:30:21.414Z,4
2018-12-13T08:31:21.364Z,4
2018-12-13T08:32:21.428Z,4
2018-12-13T08:33:21.444Z,4
2018-12-13T08:34:21.377Z,5
2018-12-13T08:35:21.362Z,5
2018-12-13T08:36:21.371Z,4
2018-12-13T08:37:21.561Z,5
2018-12-13T08:38:27.070Z,4
2018-12-13T08:39:21.433Z,4
2018-12-13T08:40:21.362Z,4
2018-12-13T08:41:21.362Z,5
2018-12-13T08:42:22.214Z,5
2018-12-13T08:43:21.369Z,5
2018-12-13T08:44:21.367Z,4
2018-12-13T08:45:21.406Z,4
2018-12-13T08:46:21.379Z,4
2018-12-13T08:47:21.423Z,4
2018-12-13T08:48:21.384Z,4
2018-12-13T08:49:21.400Z,4
2018-12-13T08:50:21.434Z,4
2018-12-13T08:51:22.033Z,5
2018-12-13T08:52:21.688Z,4
2018-12-13T08:53:21.461Z,5
2018-12-13T08:54:21.386Z,3
2018-12-13T08:55:21.449Z,3
2018-12-13T08:56:21.383Z,4
2018-12-13T08:57:21.381Z,4
2018-12-13T08:58:21.400Z,4
2018-12-13T08:59:21.385Z,5
2018-12-13T09:00:21.462Z,4
2018-12-13T09:01:21.446Z,4
2018-12-13T09:02:21.405Z,4
2018-12-13T09:03:21.456Z,4
2018-12-13T09:04:21.383Z,5
2018-12-13T09:05:21.459Z,4
2018-12-13T09:06:21.428Z,4
2018-12-13T09:07:21.440Z,4
2018-12-13T09:08:21.430Z,4
2018-12-13T09:09:21.386Z,4
2018-12-13T09:10:21.361Z,6
2018-12-13T09:11:22.063Z,6
2018-12-13T09:12:21.511Z,5
2018-12-13T09:13:21.456Z,5
2018-12-13T09:14:21.359Z,6
2018-12-13T09:15:21.500Z,5
2018-12-13T09:16:21.425Z,5
2018-12-13T09:17:21.487Z,5
2018-12-13T09:18:21.509Z,5
2018-12-13T09:19:21.453Z,5
2018-12-13T09:20:21.482Z,5
2018-12-13T09:21:21.464Z,5
2018-12-13T09:22:21.389Z,5
2018-12-13T09:23:21.450Z,5
2018-12-13T09:24:21.451Z,5
2018-12-13T09:25:21.392Z,5
2018-12-13T09:26:21.406Z,5
2018-12-13T09:27:21.393Z,5
2018-12-13T09:28:21.527Z,5
2018-12-13T09:29:21.388Z,5
2018-12-13T09:30:21.417Z,5
2018-12-13T09:31:21.501Z,5
2018-12-13T09:32:21.403Z,6
2018-12-13T09:33:21.495Z,6
2018-12-13T09:34:21.507Z,6
2018-12-13T09:35:21.388Z,6
2018-12-13T09:36:21.446Z,5
2018-12-13T09:37:21.503Z,5
2018-12-13T09:38:21.397Z,5
2018-12-13T09:39:21.410Z,5
2018-12-13T09:40:21.444Z,5
2018-12-13T09:41:21.480Z,5
2018-12-13T09:42:21.376Z,5
2018-12-13T09:43:21.394Z,5
2018-12-13T09:44:21.384Z,5
2018-12-13T09:45:21.396Z,5
2018-12-13T09:46:21.467Z,5
2018-12-13T09:47:21.407Z,5
2018-12-13T09:48:21.387Z,5
2018-12-13T09:49:21.476Z,5
2018-12-13T09:50:21.399Z,5
2018-12-13T09:51:21.440Z,5
2018-12-13T09:52:21.532Z,6
2018-12-13T09:55:21.412Z,5
2018-12-13T09:56:21.382Z,5
2018-12-13T09:57:21.377Z,5
2018-12-13T09:59:21.442Z,5
2018-12-13T10:00:22.027Z,6
2018-12-13T10:01:21.316Z,5
2018-12-13T10:02:21.366Z,5
2018-12-13T10:03:21.269Z,5
2018-12-13T10:04:21.322Z,5
2018-12-13T10:05:21.340Z,5
2018-12-13T10:06:21.269Z,5
2018-12-13T10:07:21.280Z,5
2018-12-13T10:08:21.317Z,5
2018-12-13T10:09:21.330Z,5
2018-12-13T10:10:21.307Z,6
2018-12-13T10:11:21.287Z,6
2018-12-13T10:12:21.280Z,6
2018-12-13T10:13:21.297Z,5
2018-12-13T10:14:21.406Z,5
2018-12-13T10:15:21.287Z,5
2018-12-13T10:16:21.319Z,5
2018-12-13T10:17:21.446Z,6
2018-12-13T10:18:21.961Z,7
2018-12-13T10:19:21.594Z,5
2018-12-13T10:20:21.378Z,5
2018-12-13T10:21:21.381Z,5
2018-12-13T10:22:21.426Z,5
2018-12-13T10:23:21.828Z,6
2018-12-13T10:24:21.402Z,5
2018-12-13T10:25:21.395Z,5
2018-12-13T10:26:21.386Z,5
2018-12-13T10:27:21.535Z,4
2018-12-13T10:28:21.401Z,4
2018-12-13T10:29:21.381Z,3
2018-12-13T10:30:21.468Z,3
2018-12-13T10:31:21.455Z,3
2018-12-13T10:32:21.469Z,3
2018-12-13T10:33:21.413Z,3
2018-12-13T10:34:21.388Z,5
2018-12-13T10:35:21.373Z,5
2018-12-13T10:36:21.616Z,6
2018-12-13T10:37:22.361Z,6
2018-12-13T10:38:22.117Z,7
2018-12-13T10:39:21.396Z,6
2018-12-13T10:40:21.642Z,6
2018-12-13T10:41:21.959Z,6
2018-12-13T10:42:21.401Z,5
2018-12-13T10:43:21.460Z,5
2018-12-13T10:44:21.395Z,6
2018-12-13T10:45:21.430Z,6
2018-12-13T10:46:21.470Z,6
2018-12-13T10:47:21.708Z,7
2018-12-13T10:48:21.360Z,5
2018-12-13T10:49:21.368Z,5
2018-12-13T10:50:21.413Z,6
2018-12-13T10:51:21.417Z,8
2018-12-13T10:52:21.405Z,7
2018-12-13T10:53:21.400Z,4
2018-12-13T10:54:21.387Z,5
2018-12-13T10:55:21.375Z,5
2018-12-13T10:56:21.431Z,5
2018-12-13T10:57:21.385Z,5
2018-12-13T10:58:21.382Z,5
2018-12-13T10:59:21.445Z,5
2018-12-13T11:00:21.390Z,5
2018-12-13T11:01:21.385Z,6
2018-12-13T11:02:21.458Z,6
2018-12-13T11:03:21.405Z,5
2018-12-13T11:04:21.438Z,7
2018-12-13T11:05:21.443Z,7
2018-12-13T11:06:21.390Z,6
2018-12-13T11:07:21.384Z,7
2018-12-13T11:08:21.399Z,6
2018-12-13T11:09:21.447Z,6
2018-12-13T11:10:25.430Z,5
2018-12-13T11:11:21.374Z,6
2018-12-13T11:12:21.377Z,6
2018-12-13T11:13:21.391Z,6
2018-12-13T11:14:21.457Z,6
2018-12-13T11:15:21.412Z,5
2018-12-13T11:16:21.453Z,5
2018-12-13T11:17:21.385Z,5
2018-12-13T11:18:21.372Z,5
2018-12-13T11:19:21.454Z,5
2018-12-13T11:20:21.403Z,6
2018-12-13T11:21:21.474Z,6
2018-12-13T11:22:21.372Z,5
2018-12-13T11:23:21.467Z,4
2018-12-13T11:24:21.521Z,5
2018-12-13T11:25:21.369Z,4
2018-12-13T11:26:21.417Z,4
2018-12-13T11:27:21.401Z,4
2018-12-13T11:28:21.381Z,4
2018-12-13T11:29:21.369Z,4
2018-12-13T11:30:21.392Z,4
2018-12-13T11:31:21.359Z,4
2018-12-13T11:32:21.415Z,4
2018-12-13T11:33:21.407Z,4
2018-12-13T11:34:21.368Z,4
2018-12-13T11:35:21.466Z,4
2018-12-13T11:36:21.379Z,4
2018-12-13T11:37:21.524Z,5
2018-12-13T11:38:21.441Z,5
2018-12-13T11:39:21.390Z,5
2018-12-13T11:40:21.379Z,5
2018-12-13T11:41:21.396Z,4
2018-12-13T11:42:21.441Z,4
2018-12-13T11:43:21.371Z,4
2018-12-13T11:44:21.399Z,5
2018-12-13T11:45:21.373Z,5
2018-12-13T11:46:21.400Z,5
2018-12-13T11:47:22.360Z,5
2018-12-13T11:48:21.411Z,7
2018-12-13T11:49:21.383Z,7
2018-12-13T11:50:21.376Z,7
2018-12-13T11:51:21.382Z,7
2018-12-13T11:52:21.423Z,6
2018-12-13T11:53:21.471Z,6
2018-12-13T11:54:21.369Z,6
2018-12-13T11:55:21.396Z,6
2018-12-13T11:56:21.389Z,7
2018-12-13T11:57:21.468Z,6
2018-12-13T11:58:21.406Z,6
2018-12-13T11:59:21.385Z,7
2018-12-13T12:00:21.492Z,8
2018-12-13T12:01:21.549Z,7
2018-12-13T12:02:24.067Z,7
2018-12-13T12:03:23.277Z,9
2018-12-13T12:04:24.302Z,10
2018-12-13T12:05:22.090Z,8
2018-12-13T12:06:21.376Z,3
2018-12-13T12:07:21.334Z,3
2018-12-13T12:08:21.360Z,3
2018-12-13T12:09:21.494Z,3
2018-12-13T12:10:21.355Z,3
2018-12-13T12:11:21.465Z,3
2018-12-13T12:12:21.413Z,4
2018-12-13T12:13:23.683Z,4
2018-12-13T12:14:23.730Z,4
2018-12-13T12:15:21.340Z,4
2018-12-13T12:16:21.300Z,4
2018-12-13T12:17:23.883Z,5
2018-12-13T12:18:24.665Z,4
2018-12-13T12:19:22.394Z,5
2018-12-13T12:20:21.546Z,5
2018-12-13T12:21:21.440Z,6
2018-12-13T12:22:21.359Z,6
2018-12-13T12:23:21.334Z,3
2018-12-13T12:24:21.295Z,3
2018-12-13T12:25:21.376Z,4
2018-12-13T12:26:21.299Z,4
2018-12-13T12:27:21.471Z,4
2018-12-13T12:28:21.293Z,4
2018-12-13T12:29:21.388Z,4
2018-12-13T12:30:21.306Z,4
2018-12-13T12:31:21.346Z,4
2018-12-13T12:32:21.375Z,4
2018-12-13T12:33:21.414Z,4
2018-12-13T12:34:22.150Z,7
2018-12-13T12:35:22.827Z,6
2018-12-13T12:36:22.765Z,6
2018-12-13T12:37:23.872Z,7
2018-12-13T12:38:21.858Z,8
2018-12-13T12:39:21.370Z,8
2018-12-13T12:40:21.748Z,7
2018-12-13T12:41:21.369Z,7
2018-12-13T12:42:21.375Z,6
2018-12-13T12:43:21.387Z,6
2018-12-13T12:44:21.396Z,6
2018-12-13T12:45:21.731Z,7
2018-12-13T12:47:21.347Z,5
2018-12-13T12:48:21.361Z,6
2018-12-13T12:50:22.568Z,8
2018-12-13T12:51:21.660Z,4
2018-12-13T12:52:23.556Z,7
2018-12-13T12:53:21.352Z,6
2018-12-13T12:54:21.518Z,6
2018-12-13T12:55:21.716Z,5
2018-12-13T12:56:21.402Z,7
2018-12-13T12:57:21.376Z,6
2018-12-13T12:58:22.921Z,7
2018-12-13T12:59:21.345Z,7
2018-12-13T13:00:23.700Z,7
2018-12-13T13:01:23.851Z,6
2018-12-13T13:02:22.717Z,5
2018-12-13T13:03:22.002Z,5
2018-12-13T13:04:21.426Z,5
2018-12-13T13:05:21.487Z,5
2018-12-13T13:06:23.109Z,4
2018-12-13T13:07:21.411Z,3
2018-12-13T13:08:21.405Z,3
2018-12-13T13:09:25.030Z,3
2018-12-13T13:10:21.488Z,4
2018-12-13T13:11:21.389Z,4
2018-12-13T13:12:21.654Z,3
2018-12-13T13:13:21.440Z,3
2018-12-13T13:14:21.550Z,3
2018-12-13T13:15:21.513Z,3
2018-12-13T13:16:21.671Z,3
2018-12-13T13:17:21.664Z,4
2018-12-13T13:18:22.472Z,3
2018-12-13T13:19:21.687Z,3
2018-12-13T13:20:21.677Z,3
2018-12-13T13:21:21.626Z,3
2018-12-13T13:22:21.530Z,3
2018-12-13T13:23:21.495Z,3
2018-12-13T13:24:21.540Z,3
2018-12-13T13:25:21.771Z,3
2018-12-13T13:26:21.703Z,3
2018-12-13T13:27:21.528Z,3
2018-12-13T13:28:21.588Z,3
2018-12-13T13:29:21.735Z,3
2018-12-13T13:30:21.519Z,3
2018-12-13T13:31:21.657Z,3
2018-12-13T13:32:21.606Z,4
2018-12-13T13:33:21.600Z,3
2018-12-13T13:34:21.567Z,4
2018-12-13T13:35:21.662Z,4
2018-12-13T13:36:21.637Z,3
2018-12-13T13:37:21.570Z,3
2018-12-13T13:38:21.627Z,4
2018-12-13T13:39:21.866Z,3
2018-12-13T13:40:21.504Z,3
2018-12-13T13:41:21.413Z,4
2018-12-13T13:42:21.480Z,4
2018-12-13T13:43:21.464Z,4
2018-12-13T13:44:21.418Z,4
2018-12-13T13:45:21.454Z,3
2018-12-13T13:46:21.458Z,3
2018-12-13T13:47:21.517Z,3
2018-12-13T13:48:21.443Z,3
2018-12-13T13:49:21.363Z,3
2018-12-13T13:50:21.525Z,4
2018-12-13T13:51:21.393Z,3
2018-12-13T13:52:21.417Z,3
2018-12-13T13:53:21.468Z,3
2018-12-13T13:54:21.378Z,3
2018-12-13T13:55:21.395Z,4
2018-12-13T13:56:21.538Z,4
2018-12-13T13:57:21.382Z,4
2018-12-13T13:58:21.866Z,4
2018-12-13T13:59:21.455Z,3
2018-12-13T14:00:21.374Z,3
2018-12-13T14:01:21.485Z,4
2018-12-13T14:02:21.435Z,4
2018-12-13T14:03:21.395Z,4
2018-12-13T14:04:21.495Z,4
2018-12-13T14:05:22.195Z,5
2018-12-13T14:06:21.442Z,4
2018-12-13T14:07:21.460Z,4
2018-12-13T14:08:21.380Z,3
2018-12-13T14:09:21.378Z,3
2018-12-13T14:10:21.732Z,4
2018-12-13T14:11:21.448Z,4
2018-12-13T14:12:22.056Z,4
2018-12-13T14:13:21.376Z,4
2018-12-13T14:14:21.374Z,4
2018-12-13T14:15:21.360Z,4
2018-12-13T14:16:21.418Z,4
2018-12-13T14:17:21.464Z,3
2018-12-13T14:18:21.400Z,3
2018-12-13T14:19:21.427Z,3
2018-12-13T14:20:21.357Z,4
2018-12-13T14:21:22.031Z,4
2018-12-13T14:22:21.438Z,4
2018-12-13T14:23:21.502Z,5
2018-12-13T14:24:21.408Z,6
2018-12-13T14:25:21.357Z,5
2018-12-13T14:26:21.402Z,6
2018-12-13T14:27:21.364Z,5
2018-12-13T14:28:21.353Z,5
2018-12-13T14:29:21.396Z,5
2018-12-13T14:30:21.372Z,8
2018-12-13T14:31:21.802Z,10
2018-12-13T14:32:25.339Z,11
2018-12-13T14:33:21.643Z,6
2018-12-13T14:34:22.745Z,6
2018-12-13T14:35:21.885Z,5
2018-12-13T14:36:23.416Z,6
2018-12-13T14:37:21.698Z,5
2018-12-13T14:38:21.510Z,5
2018-12-13T14:39:21.927Z,7
2018-12-13T14:40:22.673Z,9
2018-12-13T14:41:26.046Z,9
2018-12-13T14:42:23.629Z,11
2018-12-13T14:43:29.164Z,11
2018-12-13T14:44:21.755Z,11
2018-12-13T14:45:22.854Z,13
2018-12-13T14:46:21.958Z,14
2018-12-13T14:47:22.982Z,12
2018-12-13T14:48:27.703Z,13
2018-12-13T14:49:22.189Z,14
2018-12-13T14:50:23.769Z,15
2018-12-13T14:51:21.542Z,9
2018-12-13T14:52:21.344Z,3
2018-12-13T14:53:21.370Z,3
2018-12-13T14:54:21.410Z,3
2018-12-13T14:55:21.332Z,3
2018-12-13T14:56:21.336Z,3
2018-12-13T14:57:21.399Z,3
2018-12-13T14:58:21.342Z,3